Time;durP1;ratioP1;P1;durP2;ratioP2;P2;SDS_P1;SDS_P2;PMS_P1;PMS_P2;Temp;Humidity;BMP_temperature;BMP_pressure;BME280_temperature;BME280_humidity;BME280_pressure;Samples;Min_cycle;Max_cycle;Signal;HPM_P1;HPM_P2
2022/10/23 00:00:49;;;;;;;5.35;1.90;;;21.60;99.90;;;;;;5059846;28;20260;-88
2022/10/23 00:03:21;;;;;;;5.00;1.60;;;21.60;99.90;;;;;;5065151;28;20291;-90
2022/10/23 00:05:54;;;;;;;4.05;1.60;;;21.50;99.90;;;;;;5064562;28;20654;-90
2022/10/23 00:08:27;;;;;;;4.28;1.80;;;21.50;99.90;;;;;;5080054;28;20204;-94
2022/10/23 00:11:21;;;;;;;3.65;1.58;;;21.50;99.90;;;;;;5085695;28;20560;-96
2022/10/23 00:13:54;;;;;;;4.63;1.90;;;21.40;99.90;;;;;;5067548;28;20200;-92
2022/10/23 00:16:26;;;;;;;2.92;1.55;;;21.50;99.90;;;;;;5078864;28;20303;-92
2022/10/23 00:19:24;;;;;;;5.22;2.20;;;21.50;99.90;;;;;;5091318;28;20302;-93
2022/10/23 00:22:07;;;;;;;4.05;1.55;;;21.50;99.90;;;;;;5087365;28;20187;-93
2022/10/23 00:24:48;;;;;;;3.47;1.50;;;21.50;99.90;;;;;;5076603;28;20216;-94
2022/10/23 00:27:27;;;;;;;2.60;1.40;;;21.60;99.90;;;;;;5074211;28;20653;-94
2022/10/23 00:29:59;;;;;;;4.18;1.75;;;21.60;99.90;;;;;;5078752;28;20234;-94
2022/10/23 00:32:32;;;;;;;2.45;1.75;;;21.70;99.90;;;;;;5070878;28;20196;-96
2022/10/23 00:37:50;;;;;;;2.97;1.90;;;21.90;99.90;;;;;;5092570;28;20197;-92
2022/10/23 00:40:22;;;;;;;3.78;2.00;;;22.00;99.90;;;;;;5089042;28;20188;-95
2022/10/23 00:43:00;;;;;;;4.45;1.75;;;22.00;99.90;;;;;;5076281;28;20215;-95
2022/10/23 00:45:41;;;;;;;4.70;1.80;;;22.10;99.90;;;;;;5055408;28;20502;-92
2022/10/23 00:48:16;;;;;;;3.97;1.85;;;22.00;99.90;;;;;;5105548;28;20221;-95
2022/10/23 00:51:04;;;;;;;3.67;1.75;;;22.10;99.90;;;;;;5092089;28;20219;-94
2022/10/23 00:53:39;;;;;;;7.07;1.98;;;22.20;99.90;;;;;;5085494;28;20216;-95
2022/10/23 00:56:12;;;;;;;5.30;1.65;;;22.20;99.90;;;;;;5076188;28;20192;-94
2022/10/23 00:58:48;;;;;;;4.68;2.13;;;22.30;99.90;;;;;;5064490;28;20287;-95
2022/10/23 01:01:23;;;;;;;6.00;2.10;;;22.30;99.90;;;;;;5066187;28;20283;-94
2022/10/23 01:03:56;;;;;;;2.72;1.83;;;22.40;99.90;;;;;;5056892;28;20224;-93
2022/10/23 01:06:41;;;;;;;6.05;2.00;;;22.40;99.90;;;;;;5068054;28;20207;-95
2022/10/23 01:09:22;;;;;;;3.03;1.85;;;22.60;99.90;;;;;;5079577;28;20393;-94
2022/10/23 01:12:01;;;;;;;5.38;1.98;;;22.70;99.90;;;;;;5070845;28;20298;-95
2022/10/23 01:14:53;;;;;;;4.60;1.50;;;22.80;99.90;;;;;;5080364;28;20249;-94
2022/10/23 01:17:31;;;;;;;5.43;1.70;;;22.90;99.90;;;;;;5086075;28;20199;-94
2022/10/23 01:20:19;;;;;;;3.30;1.80;;;22.90;99.90;;;;;;5062237;28;20674;-95
2022/10/23 01:23:20;;;;;;;5.22;1.70;;;22.90;99.90;;;;;;5082507;28;20186;-94
2022/10/23 01:26:23;;;;;;;7.10;1.42;;;22.90;99.90;;;;;;5082252;28;20196;-95
2022/10/23 01:29:11;;;;;;;2.75;1.42;;;22.60;99.90;;;;;;5091985;28;20282;-94
2022/10/23 01:31:51;;;;;;;3.40;1.40;;;22.50;99.90;;;;;;5076931;28;20229;-96
2022/10/23 01:34:30;;;;;;;3.25;1.27;;;22.50;99.90;;;;;;5087117;28;20195;-96
2022/10/23 01:37:13;;;;;;;2.65;1.40;;;22.60;99.90;;;;;;5100947;28;20187;-96
2022/10/23 01:42:43;;;;;;;2.75;1.42;;;23.00;99.90;;;;;;5083105;28;20227;-94
2022/10/23 01:45:32;;;;;;;3.20;1.38;;;23.20;99.90;;;;;;5092896;28;20263;-96
2022/10/23 01:48:14;;;;;;;5.45;1.77;;;23.40;99.90;;;;;;5102887;28;20229;-94
2022/10/23 01:50:53;;;;;;;2.90;1.40;;;23.50;99.90;;;;;;5091426;28;20627;-94
2022/10/23 01:53:29;;;;;;;3.42;1.50;;;23.80;99.90;;;;;;5095011;28;20753;-95
2022/10/23 01:56:04;;;;;;;4.53;1.60;;;23.90;99.90;;;;;;5077811;28;20238;-93
2022/10/23 01:58:38;;;;;;;3.97;1.50;;;24.10;99.90;;;;;;5078674;28;20192;-95
2022/10/23 02:01:15;;;;;;;4.68;1.67;;;24.10;99.90;;;;;;5084209;28;20725;-94
2022/10/23 02:03:50;;;;;;;3.08;1.30;;;24.20;99.90;;;;;;5079475;28;20226;-95
2022/10/23 02:09:06;;;;;;;2.97;1.33;;;24.30;99.90;;;;;;5109782;28;20191;-96
2022/10/23 02:12:01;;;;;;;2.10;1.30;;;24.40;99.90;;;;;;5086121;28;20268;-90
2022/10/23 02:14:49;;;;;;;1.80;1.23;;;24.30;99.90;;;;;;5090192;28;20847;-91
2022/10/23 02:17:56;;;;;;;3.15;1.70;;;24.30;99.90;;;;;;5094261;28;20199;-92
2022/10/23 02:20:37;;;;;;;4.15;1.50;;;24.40;99.90;;;;;;5087136;28;20290;-91
2022/10/23 02:23:27;;;;;;;2.25;1.50;;;24.40;99.90;;;;;;5096507;28;20199;-91
2022/10/23 02:28:52;;;;;;;3.10;2.28;;;24.60;99.90;;;;;;5079141;28;20536;-94
2022/10/23 02:31:35;;;;;;;3.45;2.03;;;24.60;99.90;;;;;;5084910;28;20250;-92
2022/10/23 02:34:11;;;;;;;4.05;2.35;;;24.60;99.90;;;;;;5086083;28;20183;-92
2022/10/23 02:36:52;;;;;;;3.17;2.88;;;24.60;99.90;;;;;;5089081;28;20190;-91
2022/10/23 02:39:26;;;;;;;4.60;3.05;;;24.60;99.90;;;;;;5073957;28;20203;-91
2022/10/23 02:42:08;;;;;;;4.53;2.85;;;24.70;99.90;;;;;;5087465;28;20241;-92
2022/10/23 02:44:48;;;;;;;3.17;2.10;;;24.80;99.90;;;;;;5070763;28;20231;-90
2022/10/23 02:47:37;;;;;;;3.13;1.95;;;24.70;99.90;;;;;;5084967;28;20192;-90
2022/10/23 02:50:36;;;;;;;4.30;2.15;;;24.70;99.90;;;;;;5070099;28;20216;-90
2022/10/23 02:53:16;;;;;;;2.60;2.40;;;24.70;99.90;;;;;;5083940;28;20224;-90
2022/10/23 02:56:04;;;;;;;2.63;2.33;;;24.70;99.90;;;;;;5063057;28;20219;-90
2022/10/23 03:01:51;;;;;;;2.20;1.80;;;24.70;99.90;;;;;;5069189;28;20204;-90
2022/10/23 03:04:26;;;;;;;2.67;1.98;;;24.70;99.90;;;;;;5066535;28;20200;-92
2022/10/23 03:07:06;;;;;;;2.47;1.90;;;24.80;99.90;;;;;;5080529;28;20202;-89
2022/10/23 03:09:38;;;;;;;4.47;2.05;;;24.80;99.90;;;;;;5072100;28;20219;-90
2022/10/23 03:17:49;;;;;;;4.63;2.13;;;24.90;99.90;;;;;;5085503;28;20219;-90
2022/10/23 03:20:21;;;;;;;4.72;2.25;;;24.90;99.90;;;;;;5067639;28;20231;-91
2022/10/23 03:22:59;;;;;;;6.68;2.08;;;24.90;99.90;;;;;;5092379;28;20219;-89
2022/10/23 03:25:31;;;;;;;6.43;1.95;;;24.80;99.90;;;;;;5075511;28;20204;-91
2022/10/23 03:28:14;;;;;;;7.88;2.10;;;24.70;99.90;;;;;;5084044;28;20278;-89
2022/10/23 03:30:54;;;;;;;4.22;2.08;;;24.60;99.90;;;;;;5053620;28;20227;-92
2022/10/23 03:33:30;;;;;;;3.03;1.85;;;24.30;99.90;;;;;;5095994;28;20265;-89
2022/10/23 03:36:05;;;;;;;3.72;1.90;;;24.10;99.90;;;;;;5085527;28;20261;-91
2022/10/23 03:39:15;;;;;;;4.78;2.10;;;23.90;99.90;;;;;;5088667;28;20249;-89
2022/10/23 03:42:21;;;;;;;3.58;1.58;;;23.80;99.90;;;;;;5086453;28;20286;-89
2022/10/23 03:44:52;;;;;;;4.45;1.90;;;23.80;99.90;;;;;;5114952;28;20195;-90
2022/10/23 03:47:26;;;;;;;4.82;1.88;;;23.80;99.90;;;;;;5101298;28;20219;-91
2022/10/23 03:50:05;;;;;;;4.03;1.85;;;23.70;99.90;;;;;;5077190;28;20200;-89
2022/10/23 03:52:45;;;;;;;7.28;2.30;;;23.70;99.90;;;;;;5099608;28;20203;-88
2022/10/23 03:55:19;;;;;;;4.88;1.88;;;23.60;99.90;;;;;;5095976;28;20196;-88
2022/10/23 03:57:57;;;;;;;6.75;1.98;;;23.50;99.90;;;;;;5071028;28;20194;-87
2022/10/23 04:00:30;;;;;;;6.35;2.00;;;23.40;99.90;;;;;;5095598;28;20201;-88
2022/10/23 04:03:04;;;;;;;4.85;1.98;;;23.30;99.90;;;;;;5081737;28;20188;-88
2022/10/23 04:05:37;;;;;;;4.90;2.15;;;23.20;99.90;;;;;;5081866;28;20196;-91
2022/10/23 04:08:09;;;;;;;3.45;1.92;;;23.20;99.90;;;;;;5113765;28;20234;-87
2022/10/23 04:10:45;;;;;;;4.72;1.85;;;23.10;99.90;;;;;;5088854;28;20223;-88
2022/10/23 04:13:24;;;;;;;4.15;1.88;;;23.10;99.90;;;;;;5084921;28;20248;-88
2022/10/23 04:15:55;;;;;;;4.60;1.88;;;23.10;99.90;;;;;;5084512;28;20214;-92
2022/10/23 04:18:33;;;;;;;3.53;1.67;;;23.00;99.90;;;;;;5099454;28;20548;-88
2022/10/23 04:21:07;;;;;;;6.70;1.60;;;22.90;99.90;;;;;;5096712;28;20195;-88
2022/10/23 04:23:42;;;;;;;4.78;1.70;;;22.80;99.90;;;;;;5095079;28;20196;-88
2022/10/23 04:29:00;;;;;;;3.85;1.70;;;22.50;99.90;;;;;;5078974;28;20619;-90
2022/10/23 04:31:32;;;;;;;4.80;2.10;;;22.50;99.90;;;;;;5091735;28;20218;-88
2022/10/23 04:34:04;;;;;;;6.35;2.00;;;22.40;99.90;;;;;;5097887;28;20561;-90
2022/10/23 04:36:35;;;;;;;4.90;1.67;;;22.40;99.90;;;;;;5095450;28;20282;-87
2022/10/23 04:39:07;;;;;;;5.05;1.85;;;22.30;99.90;;;;;;5095825;28;20611;-86
2022/10/23 04:41:39;;;;;;;8.10;2.00;;;22.30;99.90;;;;;;5098031;28;20237;-87
2022/10/23 04:44:15;;;;;;;5.55;1.67;;;22.30;99.90;;;;;;5078966;28;20196;-91
2022/10/23 04:46:47;;;;;;;4.10;1.95;;;22.30;99.90;;;;;;5092935;28;20203;-89
2022/10/23 04:49:17;;;;;;;6.38;2.20;;;22.20;99.90;;;;;;5091953;28;20330;-87
2022/10/23 04:51:48;;;;;;;9.77;2.30;;;22.20;99.90;;;;;;5092869;28;20225;-89
2022/10/23 04:54:19;;;;;;;6.93;2.35;;;22.10;99.90;;;;;;5075604;28;20195;-87
2022/10/23 04:56:50;;;;;;;5.45;2.22;;;22.10;99.90;;;;;;5108368;28;20379;-88
2022/10/23 04:59:26;;;;;;;4.30;1.70;;;22.20;99.90;;;;;;5087607;28;20254;-88
2022/10/23 05:01:57;;;;;;;6.53;1.80;;;22.20;99.90;;;;;;5076717;28;20205;-88
2022/10/23 05:04:32;;;;;;;7.10;1.65;;;22.20;99.90;;;;;;5085065;28;20258;-87
2022/10/23 05:07:02;;;;;;;6.35;1.85;;;22.10;99.90;;;;;;5086142;28;20207;-91
2022/10/23 05:09:34;;;;;;;7.03;2.00;;;22.10;99.90;;;;;;5091093;28;20211;-89
2022/10/23 05:12:05;;;;;;;5.45;1.90;;;22.10;99.90;;;;;;5095425;28;20227;-89
2022/10/23 05:14:44;;;;;;;5.78;1.90;;;22.00;99.90;;;;;;5108157;28;20191;-86
2022/10/23 05:17:21;;;;;;;5.13;1.80;;;22.00;99.90;;;;;;5096558;28;20194;-86
2022/10/23 05:19:57;;;;;;;7.95;2.17;;;21.90;99.90;;;;;;5099137;28;20256;-87
2022/10/23 05:22:38;;;;;;;7.93;2.10;;;21.90;99.90;;;;;;5079570;28;20251;-88
2022/10/23 05:25:13;;;;;;;8.57;2.40;;;21.90;99.90;;;;;;5116444;28;20183;-87
2022/10/23 05:27:45;;;;;;;6.18;2.17;;;21.90;99.90;;;;;;5097478;28;20580;-89
2022/10/23 05:30:19;;;;;;;8.55;2.55;;;21.90;99.90;;;;;;5083393;28;20319;-89
2022/10/23 05:32:55;;;;;;;8.13;2.03;;;21.90;99.90;;;;;;5088518;28;20230;-88
2022/10/23 05:35:27;;;;;;;5.78;2.30;;;21.90;99.90;;;;;;5090919;28;20229;-90
2022/10/23 05:38:00;;;;;;;8.00;2.28;;;21.80;99.90;;;;;;5104235;28;20219;-86
2022/10/23 05:40:31;;;;;;;9.93;2.67;;;21.90;99.90;;;;;;5091817;28;20295;-87
2022/10/23 05:43:05;;;;;;;7.97;2.28;;;21.90;99.90;;;;;;5092638;28;20245;-88
2022/10/23 05:45:41;;;;;;;6.55;2.25;;;21.80;99.90;;;;;;5093878;28;20199;-91
2022/10/23 05:48:12;;;;;;;6.50;2.22;;;21.80;99.90;;;;;;5093491;28;20225;-87
2022/10/23 05:50:43;;;;;;;8.50;2.28;;;21.80;99.90;;;;;;5092540;28;20201;-89
2022/10/23 05:53:15;;;;;;;8.27;2.30;;;21.80;99.90;;;;;;5090738;28;20199;-86
2022/10/23 05:55:47;;;;;;;6.00;2.08;;;21.70;99.90;;;;;;5093412;28;20496;-89
2022/10/23 05:58:17;;;;;;;8.93;2.15;;;21.80;99.90;;;;;;5094350;28;20220;-88
2022/10/23 06:00:53;;;;;;;9.32;2.38;;;21.90;99.90;;;;;;5104363;28;20203;-91
2022/10/23 06:03:25;;;;;;;11.30;2.58;;;21.90;99.90;;;;;;5083290;28;20238;-87
2022/10/23 06:05:56;;;;;;;8.55;2.22;;;21.90;99.90;;;;;;5081197;28;20674;-87
2022/10/23 06:08:28;;;;;;;5.70;2.15;;;21.90;99.90;;;;;;5085545;28;20290;-89
2022/10/23 06:11:01;;;;;;;6.60;2.25;;;21.90;99.90;;;;;;5071874;28;20215;-90
2022/10/23 06:13:32;;;;;;;9.10;2.65;;;21.90;99.90;;;;;;5108943;28;20245;-89
2022/10/23 06:16:11;;;;;;;10.00;2.80;;;21.90;99.90;;;;;;5074469;28;20627;-89
2022/10/23 06:18:42;;;;;;;7.30;2.17;;;21.90;99.90;;;;;;5091026;28;20712;-87
2022/10/23 06:21:16;;;;;;;6.53;2.25;;;21.80;99.90;;;;;;5093176;28;20206;-88
2022/10/23 06:23:49;;;;;;;10.00;2.72;;;21.80;99.90;;;;;;5096859;28;20263;-87
2022/10/23 06:26:22;;;;;;;11.65;3.33;;;21.80;99.90;;;;;;5108373;28;20203;-87
2022/10/23 06:28:53;;;;;;;11.88;2.97;;;21.80;99.90;;;;;;5095206;28;20306;-87
2022/10/23 06:31:27;;;;;;;10.07;3.05;;;21.80;99.90;;;;;;5102739;28;20722;-87
2022/10/23 06:34:00;;;;;;;7.90;3.00;;;21.80;99.90;;;;;;5095722;28;20199;-86
2022/10/23 06:36:33;;;;;;;8.98;3.42;;;21.80;99.90;;;;;;5088967;28;20218;-87
2022/10/23 06:39:08;;;;;;;13.20;3.50;;;21.80;99.90;;;;;;5095111;28;20195;-91
2022/10/23 06:41:41;;;;;;;6.55;2.72;;;21.70;99.90;;;;;;5096159;28;20234;-89
2022/10/23 06:44:13;;;;;;;11.38;3.38;;;21.70;99.90;;;;;;5093340;28;20195;-87
2022/10/23 06:46:50;;;;;;;10.93;3.17;;;21.80;99.90;;;;;;5095831;28;20202;-87
2022/10/23 06:49:22;;;;;;;14.23;3.75;;;21.70;99.90;;;;;;5094797;28;20215;-88
2022/10/23 06:51:57;;;;;;;9.88;3.38;;;21.70;99.90;;;;;;5089337;28;20218;-88
2022/10/23 06:54:28;;;;;;;9.90;3.25;;;21.70;99.90;;;;;;5080397;28;20239;-90
2022/10/23 06:57:07;;;;;;;9.90;3.25;;;21.60;99.90;;;;;;5082002;28;20590;-91
2022/10/23 06:59:42;;;;;;;11.65;3.63;;;21.60;99.90;;;;;;5077512;28;20191;-88
2022/10/23 07:02:19;;;;;;;8.80;2.88;;;21.60;99.90;;;;;;5088273;28;20208;-90
2022/10/23 07:04:53;;;;;;;13.65;3.53;;;21.60;99.90;;;;;;5077184;28;20191;-87
2022/10/23 07:07:25;;;;;;;10.45;3.10;;;21.60;99.90;;;;;;5071127;28;20200;-88
2022/10/23 07:09:57;;;;;;;10.77;3.63;;;21.50;99.90;;;;;;5093767;28;20223;-88
2022/10/23 07:12:29;;;;;;;10.32;3.97;;;21.50;99.90;;;;;;5103500;28;20282;-88
2022/10/23 07:15:04;;;;;;;13.75;3.75;;;21.60;99.90;;;;;;5107130;28;20219;-89
2022/10/23 07:17:40;;;;;;;10.55;3.83;;;21.50;99.90;;;;;;5090767;28;20203;-88
2022/10/23 07:20:11;;;;;;;11.70;3.97;;;21.50;99.90;;;;;;5097801;28;20195;-86
2022/10/23 07:22:43;;;;;;;11.00;3.55;;;21.50;99.90;;;;;;5118235;28;20255;-85
2022/10/23 07:25:18;;;;;;;10.65;3.50;;;21.50;99.90;;;;;;5102433;28;20188;-88
2022/10/23 07:27:57;;;;;;;9.93;3.15;;;21.50;99.90;;;;;;5107922;28;20286;-88
2022/10/23 07:30:31;;;;;;;13.20;3.47;;;21.40;99.90;;;;;;5101616;28;20310;-91
2022/10/23 07:33:06;;;;;;;11.20;3.20;;;21.40;99.90;;;;;;5101128;28;20226;-90
2022/10/23 07:35:45;;;;;;;10.95;2.90;;;21.40;99.90;;;;;;5101972;28;20206;-89
2022/10/23 07:38:25;;;;;;;8.10;2.70;;;21.30;99.90;;;;;;5086496;28;20195;-89
2022/10/23 07:41:01;;;;;;;9.25;3.00;;;21.20;99.90;;;;;;5099466;28;20202;-88
2022/10/23 07:43:34;;;;;;;9.25;2.78;;;21.20;99.90;;;;;;5107426;28;20218;-87
2022/10/23 07:46:08;;;;;;;14.63;3.05;;;21.20;99.90;;;;;;5107630;28;20226;-89
2022/10/23 07:48:44;;;;;;;9.15;2.97;;;21.10;99.90;;;;;;5084541;28;20195;-88
2022/10/23 07:51:21;;;;;;;8.88;3.13;;;21.10;99.90;;;;;;5112392;28;20229;-89
2022/10/23 07:53:54;;;;;;;12.15;2.88;;;21.00;99.90;;;;;;5113343;28;20203;-88
2022/10/23 07:56:36;;;;;;;7.85;2.90;;;21.00;99.90;;;;;;5087695;28;20195;-88
2022/10/23 07:59:07;;;;;;;7.80;2.80;;;21.00;99.90;;;;;;5096903;28;20213;-89
2022/10/23 08:01:41;;;;;;;10.43;2.55;;;21.00;99.90;;;;;;5084119;28;20200;-89
2022/10/23 08:04:14;;;;;;;7.80;2.50;;;20.90;99.90;;;;;;5096364;28;20265;-88
2022/10/23 08:06:45;;;;;;;8.35;2.60;;;20.90;99.90;;;;;;5094868;28;20218;-89
2022/10/23 08:09:16;;;;;;;8.73;2.60;;;20.90;99.90;;;;;;5095101;28;20215;-88
2022/10/23 08:11:48;;;;;;;9.10;2.67;;;20.80;99.90;;;;;;5095920;28;20219;-89
2022/10/23 08:14:18;;;;;;;8.68;3.08;;;20.80;99.90;;;;;;5097122;28;20286;-89
2022/10/23 08:16:49;;;;;;;10.60;2.75;;;20.80;99.90;;;;;;5096645;28;20191;-88
2022/10/23 08:19:24;;;;;;;10.23;2.47;;;20.70;99.90;;;;;;5096072;28;20203;-91
2022/10/23 08:21:59;;;;;;;8.68;2.70;;;20.60;99.90;;;;;;5096708;28;20210;-90
2022/10/23 08:24:30;;;;;;;10.45;2.92;;;20.60;99.90;;;;;;5105332;28;20219;-90
2022/10/23 08:27:03;;;;;;;6.85;2.30;;;20.60;99.90;;;;;;5113684;28;20562;-89
2022/10/23 08:29:34;;;;;;;6.80;2.75;;;20.60;99.90;;;;;;5098412;28;20610;-95
2022/10/23 08:32:05;;;;;;;14.57;3.10;;;20.60;99.90;;;;;;5097941;28;20585;-92
2022/10/23 08:34:40;;;;;;;9.63;2.83;;;20.60;99.90;;;;;;5079895;28;20203;-89
2022/10/23 08:37:11;;;;;;;7.10;2.55;;;20.60;99.90;;;;;;5093993;28;20236;-90
2022/10/23 08:39:42;;;;;;;8.95;2.90;;;20.60;99.90;;;;;;5093424;28;20203;-87
2022/10/23 08:42:25;;;;;;;7.00;2.40;;;20.60;99.90;;;;;;5076715;28;20250;-90
2022/10/23 08:45:06;;;;;;;7.03;2.30;;;20.50;99.90;;;;;;5044133;28;20240;-90
2022/10/23 08:50:58;;;;;;;11.77;3.08;;;20.50;99.90;;;;;;5072656;28;20202;-90
2022/10/23 08:53:33;;;;;;;10.40;3.55;;;20.60;99.90;;;;;;5055051;28;20273;-91
2022/10/23 08:56:11;;;;;;;6.38;2.53;;;20.60;99.90;;;;;;5073236;28;20675;-91
2022/10/23 08:58:48;;;;;;;8.00;2.40;;;20.60;99.90;;;;;;5048629;28;20278;-92
2022/10/23 09:01:35;;;;;;;8.00;2.85;;;20.60;99.90;;;;;;5064806;28;20230;-90
2022/10/23 09:04:09;;;;;;;9.18;2.83;;;20.60;99.90;;;;;;5064171;28;20193;-88
2022/10/23 09:06:51;;;;;;;9.98;2.80;;;20.60;99.90;;;;;;5054316;28;20247;-86
2022/10/23 09:09:44;;;;;;;9.27;3.03;;;20.60;99.90;;;;;;5052196;28;20265;-87
2022/10/23 09:12:17;;;;;;;7.35;3.38;;;20.60;99.90;;;;;;5064512;28;20761;-87
2022/10/23 09:15:09;;;;;;;7.30;2.35;;;20.60;99.90;;;;;;5058165;28;20198;-86
2022/10/23 09:18:05;;;;;;;9.70;2.90;;;20.70;99.90;;;;;;5060155;28;20204;-87
2022/10/23 09:29:28;;;;;;;11.65;3.45;;;20.70;99.90;;;;;;5086224;28;20220;-88
2022/10/23 09:32:01;;;;;;;11.65;3.15;;;20.70;99.90;;;;;;5079620;28;20243;-90
2022/10/23 09:34:41;;;;;;;8.43;2.35;;;20.70;99.90;;;;;;5086318;28;20227;-90
2022/10/23 09:55:33;;;;;;;12.65;3.40;;;20.60;99.90;;;;;;5018705;28;20189;-89
2022/10/23 09:58:07;;;;;;;13.75;3.05;;;20.60;99.90;;;;;;5021804;28;20194;-88
2022/10/23 10:03:40;;;;;;;12.95;2.80;;;20.70;99.90;;;;;;5028211;28;20206;-88
2022/10/23 10:06:28;;;;;;;12.25;3.63;;;20.60;99.90;;;;;;5019814;28;20222;-87
2022/10/23 10:09:22;;;;;;;8.10;2.88;;;20.60;99.90;;;;;;5012921;28;20261;-88
2022/10/23 10:15:16;;;;;;;10.23;3.00;;;20.60;99.90;;;;;;5030754;28;20213;-89
2022/10/23 10:18:17;;;;;;;10.82;3.05;;;20.60;99.90;;;;;;5021940;28;20288;-89
2022/10/23 10:21:04;;;;;;;11.30;3.00;;;20.60;99.90;;;;;;5016734;28;20195;-90
2022/10/23 10:23:45;;;;;;;9.00;3.10;;;20.60;99.90;;;;;;5017916;28;20266;-89
2022/10/23 10:29:46;;;;;;;11.27;2.80;;;20.60;99.90;;;;;;5017046;28;20198;-90
2022/10/23 10:35:42;;;;;;;9.45;2.70;;;20.60;99.90;;;;;;5047573;28;20265;-87
2022/10/23 10:38:57;;;;;;;9.75;2.70;;;20.60;99.90;;;;;;5025916;28;20190;-89
2022/10/23 10:41:51;;;;;;;9.00;2.55;;;20.60;99.90;;;;;;5015480;28;20276;-88
2022/10/23 10:45:06;;;;;;;7.75;2.58;;;20.60;99.90;;;;;;5013898;28;20225;-88
2022/10/23 10:47:59;;;;;;;8.25;2.70;;;20.50;99.90;;;;;;4996356;28;20202;-89
2022/10/23 10:50:44;;;;;;;8.23;2.40;;;20.50;99.90;;;;;;5010070;28;20300;-89
2022/10/23 10:56:27;;;;;;;11.98;2.60;;;20.50;99.90;;;;;;5015882;28;20285;-88
2022/10/23 10:59:20;;;;;;;6.68;2.47;;;20.50;99.90;;;;;;5028177;28;20270;-89
2022/10/23 11:01:59;;;;;;;7.22;2.50;;;20.50;99.90;;;;;;5018562;28;20383;-89
2022/10/23 11:04:52;;;;;;;6.15;2.40;;;20.50;99.90;;;;;;5045795;28;20205;-87
2022/10/23 11:07:37;;;;;;;6.78;2.30;;;20.50;99.90;;;;;;5045627;28;20205;-86
2022/10/23 11:10:27;;;;;;;7.05;2.80;;;20.50;99.90;;;;;;5026508;28;20669;-88
2022/10/23 11:13:02;;;;;;;7.40;2.58;;;20.50;99.90;;;;;;5023164;28;20226;-86
2022/10/23 11:16:02;;;;;;;7.28;2.10;;;20.50;99.90;;;;;;5026289;28;20257;-88
2022/10/23 11:18:34;;;;;;;8.27;2.63;;;20.50;99.90;;;;;;5022264;28;20210;-87
2022/10/23 11:21:17;;;;;;;5.10;2.17;;;20.50;99.90;;;;;;5025328;28;20289;-88
2022/10/23 11:24:22;;;;;;;8.35;2.08;;;20.50;99.90;;;;;;5037977;28;20205;-87
2022/10/23 11:27:12;;;;;;;8.63;2.38;;;20.50;99.90;;;;;;5031576;28;20225;-87
2022/10/23 11:30:07;;;;;;;5.70;2.03;;;20.50;99.90;;;;;;5007709;28;20572;-89
2022/10/23 11:33:10;;;;;;;6.40;1.83;;;20.50;99.90;;;;;;5005297;28;20214;-88
2022/10/23 11:36:09;;;;;;;6.60;2.50;;;20.50;99.90;;;;;;4978773;28;20264;-87
2022/10/23 11:38:57;;;;;;;6.18;2.10;;;20.50;99.90;;;;;;5037573;28;20205;-91
2022/10/23 11:41:32;;;;;;;6.05;2.05;;;20.40;99.90;;;;;;5018770;28;20209;-92
2022/10/23 11:44:05;;;;;;;6.00;2.17;;;20.50;99.90;;;;;;5005415;28;20277;-87
2022/10/23 11:46:39;;;;;;;6.05;2.05;;;20.50;99.90;;;;;;5003643;28;20208;-87
2022/10/23 11:49:23;;;;;;;8.00;2.58;;;20.50;99.90;;;;;;5015705;28;20211;-88
2022/10/23 11:52:05;;;;;;;7.43;2.20;;;20.50;99.90;;;;;;5016068;28;20575;-87
2022/10/23 11:54:35;;;;;;;7.07;2.05;;;20.50;99.90;;;;;;5028332;28;20280;-87
2022/10/23 11:57:17;;;;;;;10.23;2.28;;;20.50;99.90;;;;;;5015448;28;20205;-89
2022/10/23 11:59:58;;;;;;;10.80;2.70;;;20.50;99.90;;;;;;5022921;28;20206;-89
2022/10/23 12:02:36;;;;;;;13.55;2.63;;;20.60;99.90;;;;;;5015275;28;20208;-87
2022/10/23 12:05:10;;;;;;;12.10;2.70;;;20.50;99.90;;;;;;5014969;28;20241;-86
2022/10/23 12:07:45;;;;;;;11.10;2.65;;;20.50;99.90;;;;;;4995438;28;20209;-88
2022/10/23 12:10:27;;;;;;;10.02;2.67;;;20.60;99.90;;;;;;5018220;28;20215;-88
2022/10/23 12:13:00;;;;;;;14.52;3.25;;;20.60;99.90;;;;;;5018103;28;20214;-88
2022/10/23 12:15:33;;;;;;;12.60;3.22;;;20.60;99.90;;;;;;5015289;28;20202;-86
2022/10/23 12:18:15;;;;;;;12.35;2.83;;;20.60;99.90;;;;;;5019102;28;20205;-88
2022/10/23 12:20:53;;;;;;;12.23;2.40;;;20.60;99.90;;;;;;5035939;28;20614;-88
2022/10/23 12:23:48;;;;;;;10.50;2.45;;;20.60;99.90;;;;;;5008791;28;20704;-82
2022/10/23 12:26:47;;;;;;;14.63;2.42;;;20.60;99.90;;;;;;5024076;28;20230;-86
2022/10/23 12:29:30;;;;;;;11.20;2.38;;;20.60;99.90;;;;;;5002629;28;20202;-88
2022/10/23 12:32:10;;;;;;;11.40;2.67;;;20.70;99.90;;;;;;5016060;28;20280;-86
2022/10/23 12:34:49;;;;;;;11.13;2.08;;;20.70;99.90;;;;;;5015312;28;20210;-87
2022/10/23 12:37:56;;;;;;;12.65;2.22;;;20.70;99.90;;;;;;5013656;28;20202;-87
2022/10/23 12:40:29;;;;;;;11.73;2.28;;;20.80;99.90;;;;;;4997021;28;20198;-88
2022/10/23 12:43:01;;;;;;;6.53;1.50;;;20.80;99.90;;;;;;5018847;28;20236;-88
2022/10/23 12:45:38;;;;;;;11.00;2.33;;;20.80;99.90;;;;;;5014522;28;20665;-87
2022/10/23 12:48:19;;;;;;;9.25;2.28;;;20.80;99.90;;;;;;5011249;28;20280;-87
2022/10/23 12:50:54;;;;;;;9.70;2.33;;;20.80;99.90;;;;;;5032810;28;20284;-87
2022/10/23 12:53:26;;;;;;;9.07;2.15;;;20.80;99.90;;;;;;5028886;28;20241;-87
2022/10/23 12:56:00;;;;;;;11.40;2.47;;;20.80;99.90;;;;;;5014018;28;20280;-87
2022/10/23 12:58:33;;;;;;;8.65;2.20;;;20.80;99.90;;;;;;5013766;28;20228;-87
2022/10/23 13:01:06;;;;;;;11.02;2.22;;;20.80;99.90;;;;;;5009960;28;20662;-87
2022/10/23 13:03:39;;;;;;;14.75;2.20;;;20.80;99.90;;;;;;5013364;28;20201;-88
2022/10/23 13:06:13;;;;;;;8.55;1.80;;;20.70;99.90;;;;;;5010258;28;20205;-88
2022/10/23 13:08:45;;;;;;;12.82;2.50;;;20.70;99.90;;;;;;4999337;28;20196;-87
2022/10/23 13:11:21;;;;;;;12.40;2.42;;;20.70;99.90;;;;;;5012915;28;20226;-87
2022/10/23 13:13:53;;;;;;;12.93;2.20;;;20.60;99.90;;;;;;5016162;28;20224;-86
2022/10/23 13:16:27;;;;;;;11.57;2.10;;;20.60;99.90;;;;;;5013540;28;20186;-88
2022/10/23 13:18:58;;;;;;;10.00;2.10;;;20.60;99.90;;;;;;5018195;28;20297;-86
2022/10/23 13:21:31;;;;;;;13.35;2.13;;;20.60;99.90;;;;;;5015611;28;20213;-87
2022/10/23 13:24:02;;;;;;;9.68;2.13;;;20.70;99.90;;;;;;5026069;28;20261;-88
2022/10/23 13:26:43;;;;;;;9.02;1.95;;;20.60;99.90;;;;;;5026260;28;20640;-86
2022/10/23 13:29:22;;;;;;;8.25;1.98;;;20.60;99.90;;;;;;5021785;28;20201;-86
2022/10/23 13:31:55;;;;;;;9.00;2.05;;;20.70;99.90;;;;;;5032738;28;20213;-88
2022/10/23 13:34:28;;;;;;;6.55;1.77;;;20.60;99.90;;;;;;5028563;28;20570;-89
2022/10/23 13:37:01;;;;;;;10.13;1.83;;;20.60;99.90;;;;;;5014379;28;20202;-88
2022/10/23 13:39:34;;;;;;;11.45;1.90;;;20.60;99.90;;;;;;5013833;28;20230;-88
2022/10/23 13:42:14;;;;;;;9.80;2.00;;;20.60;99.90;;;;;;5016873;28;20202;-88
2022/10/23 13:44:46;;;;;;;9.27;2.00;;;20.60;99.90;;;;;;5017098;28;20214;-88
2022/10/23 13:47:19;;;;;;;7.25;1.73;;;20.60;99.90;;;;;;5010190;28;20671;-88
2022/10/23 13:49:50;;;;;;;9.05;1.70;;;20.60;99.90;;;;;;5016118;28;21042;-88
2022/10/23 13:52:27;;;;;;;9.75;1.60;;;20.60;99.90;;;;;;5033463;28;20317;-88
2022/10/23 13:54:59;;;;;;;9.32;1.80;;;20.60;99.90;;;;;;5034193;28;20221;-87
2022/10/23 13:57:33;;;;;;;10.60;2.20;;;20.60;99.90;;;;;;5019313;28;20268;-88
2022/10/23 14:00:04;;;;;;;7.32;1.80;;;20.60;99.90;;;;;;5013119;28;20211;-87
2022/10/23 14:02:34;;;;;;;10.57;2.00;;;20.60;99.90;;;;;;5010774;28;20605;-88
2022/10/23 14:05:06;;;;;;;9.52;1.67;;;20.60;99.90;;;;;;5014098;28;20189;-87
2022/10/23 14:07:37;;;;;;;7.35;1.25;;;20.60;99.90;;;;;;5040353;28;20276;-88
2022/10/23 14:10:09;;;;;;;4.50;1.02;;;20.60;99.90;;;;;;4996715;28;20198;-88
2022/10/23 14:12:45;;;;;;;4.78;1.10;;;20.60;99.90;;;;;;4992769;28;20199;-88
2022/10/23 14:15:15;;;;;;;6.45;1.00;;;20.50;99.90;;;;;;5002689;28;20229;-87
2022/10/23 14:17:47;;;;;;;3.67;0.90;;;20.50;99.90;;;;;;5011679;28;20217;-88
2022/10/23 14:20:19;;;;;;;2.70;1.00;;;20.50;99.90;;;;;;4995589;28;20202;-87
2022/10/23 14:22:51;;;;;;;4.03;0.73;;;20.40;99.90;;;;;;4994358;28;20224;-89
2022/10/23 14:25:23;;;;;;;1.90;0.70;;;20.40;99.90;;;;;;5020002;28;20274;-89
2022/10/23 14:28:00;;;;;;;2.45;0.70;;;20.40;99.90;;;;;;5011859;28;20687;-89
2022/10/23 14:30:31;;;;;;;5.07;0.90;;;20.40;99.90;;;;;;5012662;28;20691;-89
2022/10/23 14:33:01;;;;;;;2.65;0.70;;;20.40;99.90;;;;;;5003123;28;20228;-86
2022/10/23 14:35:33;;;;;;;2.67;0.70;;;20.30;99.90;;;;;;4998433;28;20229;-86
2022/10/23 14:38:05;;;;;;;1.38;0.50;;;20.30;99.90;;;;;;5010668;28;20210;-87
2022/10/23 14:40:41;;;;;;;4.25;0.70;;;20.30;99.90;;;;;;5008558;28;20738;-87
2022/10/23 14:43:14;;;;;;;2.75;0.68;;;20.10;99.90;;;;;;5006837;28;20375;-87
2022/10/23 14:45:45;;;;;;;3.58;0.60;;;20.10;99.90;;;;;;5002937;28;20203;-87
2022/10/23 14:48:16;;;;;;;4.97;0.80;;;20.00;99.90;;;;;;5009643;28;20571;-87